Beaufort, NC

3:42 AM EDT on August 04, 2015 (GMT -0400)
NOS_NWLON | | Change Station
CLOSE
Current Station
Personal Weather Station
Location: Beaufort, NC
Elevation: 0 ft
Nearby Weather Stations

Elev 0 ft 34.72 °N, 76.67 °W | Updated 36 minutes ago

Partly Cloudy
Partly Cloudy
82 °F
Feels Like 80 °F
N
11
Wind Variable Wind from SSW
Gusts 15.0 mph

Today
High -- | Low -- °F
--% Chance of Precip.
Yesterday
High -- | Low -- °F
Precip. -- in
6:18 AM 8:06 PM
Waning Gibbous, 80% visible
Pressure 29.99 in
Visibility 10.0 miles
Clouds Few 12000 ft
Heat Index 80 °F
Dew Point Not available.
Humidity Not available.
Rainfall in
Snow Depth Not available.
UV 0 out of 12
Pollen 5.40 out of 12
Air Quality Not available.
Flu Activity Not available.
METAR KMRH 040658Z AUTO 20008KT 10SM FEW120 27/26 A2998 RMK AO2 RAB09E17 SLP153 P0000 T02670256 TSNO

More Conditions Fewer Conditions

Pressure 29.99 in
Visibility 10.0 miles
Clouds Few 12000 ft
Heat Index 80 °F
Dew Point Not available.
Humidity Not available.
Rainfall in
Snow Depth Not available.
UV 0 out of 12
Pollen 5.40 out of 12
Air Quality Not available.
Flu Activity Not available.
METAR KMRH 040658Z AUTO 20008KT 10SM FEW120 27/26 A2998 RMK AO2 RAB09E17 SLP153 P0000 T02670256 TSNO

More Conditions Fewer Conditions

10-Day Weather Forecast

×

Almanac

Astronomy

Aug. 04, 2015 Rise Set
Actual Time
Civil Twilight
Nautical Twilight
Astronomical Twilight
Moon
Length of Visible Light
Length of Day
Tomorrow will be .
, % of the Moon is Illuminated

Today's Extremes

State Highs State Lows

Community

WunderPhotos

Upload Photos

1,843,877 photos uploaded!

WunderBlogs® & News

Nearby

Air Quality

  Air Quality AQ Index Pollutant
Not available.

Snow Depth

Station Depth Elevation

Earthquake Activity

City Distance Mag. Time & Date
Minimum magnitude displayed is 2.5.

Coastal Water Temperatures

Place Temperature

Stations

Nearby Weather Stations

Station Location Temp. Windchill Dew Point Humidity Wind Precip. Elev Updated Type